Time;durP1;ratioP1;P1;durP2;ratioP2;P2;SDS_P1;SDS_P2;PMS_P1;PMS_P2;Temp;Humidity;BMP_temperature;BMP_pressure;BME280_temperature;BME280_humidity;BME280_pressure;Samples;Min_cycle;Max_cycle;Signal;HPM_P1;HPM_P2
2023/06/25 00:01:38;;;;;;;;;;;;;;;20.13;89.28;102019.16;5095851;28;19935;-47
2023/06/25 00:04:04;;;;;;;;;;;;;;;20.11;89.28;102023.50;5092034;28;20309;-43
2023/06/25 00:06:29;;;;;;;;;;;;;;;20.06;89.85;102025.19;5096391;28;19916;-45
2023/06/25 00:08:54;;;;;;;;;;;;;;;20.00;90.54;102015.59;5099260;28;19924;-46
2023/06/25 00:11:19;;;;;;;;;;;;;;;19.97;91.32;102012.09;5092130;28;20259;-45
2023/06/25 00:13:45;;;;;;;;;;;;;;;19.93;91.02;102007.69;5095672;28;19975;-44
2023/06/25 00:16:10;;;;;;;;;;;;;;;19.85;90.57;102002.44;5096207;28;19925;-48
2023/06/25 00:18:35;;;;;;;;;;;;;;;19.78;90.38;102005.84;5099513;28;19931;-44
2023/06/25 00:21:01;;;;;;;;;;;;;;;19.73;92.50;102008.41;5095339;28;20061;-45
2023/06/25 00:23:26;;;;;;;;;;;;;;;19.71;93.78;102007.50;5096965;28;19924;-45
2023/06/25 00:25:51;;;;;;;;;;;;;;;19.70;92.89;101999.69;5085862;28;19924;-47
2023/06/25 00:28:17;;;;;;;;;;;;;;;19.68;93.46;102002.28;5089574;28;19955;-45
2023/06/25 00:30:42;;;;;;;;;;;;;;;19.64;92.75;102000.50;5085002;28;20019;-45
2023/06/25 00:33:07;;;;;;;;;;;;;;;19.58;92.09;101989.09;5084041;28;19923;-44
2023/06/25 00:35:51;;;;;;;;;;;;;;;19.56;94.01;102004.75;5093731;28;19946;-46
2023/06/25 00:38:16;;;;;;;;;;;;;;;19.51;94.97;101998.63;5088059;28;19912;-46
2023/06/25 00:40:42;;;;;;;;;;;;;;;19.48;95.76;101996.00;5090731;28;20042;-45
2023/06/25 00:43:07;;;;;;;;;;;;;;;19.46;95.70;101995.09;5090784;28;19952;-44
2023/06/25 00:45:33;;;;;;;;;;;;;;;19.43;96.00;101993.34;5080462;28;19923;-44
2023/06/25 00:47:58;;;;;;;;;;;;;;;19.39;95.00;101988.94;5091228;28;19916;-45
2023/06/25 00:50:24;;;;;;;;;;;;;;;19.36;94.64;101988.91;5105893;28;19946;-44
2023/06/25 00:52:51;;;;;;;;;;;;;;;19.34;95.66;101987.13;5108069;28;19927;-56
2023/06/25 00:55:16;;;;;;;;;;;;;;;19.28;95.71;101981.00;5087004;28;19947;-57
2023/06/25 00:57:42;;;;;;;;;;;;;;;19.25;95.71;101980.97;5089802;28;19970;-57
2023/06/25 01:00:14;;;;;;;;;;;;;;;19.20;95.68;101981.78;5093499;28;19923;-57
2023/06/25 01:02:46;;;;;;;;;;;;;;;19.15;95.42;101976.53;5091300;28;19927;-57
2023/06/25 01:05:20;;;;;;;;;;;;;;;19.11;96.00;101977.38;5075183;28;19912;-57
2023/06/25 01:07:46;;;;;;;;;;;;;;;19.10;96.22;101983.41;5095339;28;19968;-57
2023/06/25 01:10:11;;;;;;;;;;;;;;;19.08;97.55;101979.06;5096147;28;19920;-56
2023/06/25 01:12:37;;;;;;;;;;;;;;;19.04;96.85;101970.31;5096105;28;19912;-58
2023/06/25 01:15:03;;;;;;;;;;;;;;;19.01;97.14;101970.31;5095451;28;20283;-58
2023/06/25 01:17:29;;;;;;;;;;;;;;;18.95;95.97;101976.31;5088097;28;20425;-57
2023/06/25 01:19:54;;;;;;;;;;;;;;;18.89;96.41;101971.03;5097198;28;19920;-57
2023/06/25 01:22:24;;;;;;;;;;;;;;;18.83;98.18;101968.38;5098819;28;20372;-57
2023/06/25 01:24:49;;;;;;;;;;;;;;;18.83;98.09;101970.09;5103843;28;19923;-57
2023/06/25 01:27:15;;;;;;;;;;;;;;;18.82;98.41;101961.41;5106245;28;19919;-46
2023/06/25 01:29:40;;;;;;;;;;;;;;;18.83;98.25;101964.88;5099948;28;19947;-47
2023/06/25 01:32:06;;;;;;;;;;;;;;;18.78;98.96;101958.75;5105561;28;20008;-44
2023/06/25 01:34:32;;;;;;;;;;;;;;;18.74;98.96;101956.09;5077582;28;19958;-46
2023/06/25 01:36:57;;;;;;;;;;;;;;;18.75;98.85;101952.66;5100734;28;19924;-45
2023/06/25 01:39:22;;;;;;;;;;;;;;;18.74;99.14;101950.00;5083817;28;19917;-44
2023/06/25 01:41:48;;;;;;;;;;;;;;;18.74;99.98;101956.09;5082676;28;19979;-47
2023/06/25 01:44:15;;;;;;;;;;;;;;;18.72;99.42;101941.28;5104046;28;20437;-45
2023/06/25 01:46:40;;;;;;;;;;;;;;;18.68;98.98;101945.59;5100738;28;20344;-44
2023/06/25 01:49:06;;;;;;;;;;;;;;;18.64;98.62;101937.72;5097538;28;19930;-45
2023/06/25 01:51:33;;;;;;;;;;;;;;;18.59;99.70;101942.84;5100329;28;19916;-46
2023/06/25 01:53:59;;;;;;;;;;;;;;;18.56;100.00;101937.59;5101059;28;19915;-48
2023/06/25 01:56:24;;;;;;;;;;;;;;;18.55;100.00;101937.59;5095728;28;19916;-46
2023/06/25 01:58:52;;;;;;;;;;;;;;;18.54;100.00;101934.09;5094037;28;20010;-45
2023/06/25 02:01:18;;;;;;;;;;;;;;;18.51;100.00;101926.28;5083524;28;19919;-46
2023/06/25 02:03:43;;;;;;;;;;;;;;;18.50;100.00;101927.09;5098856;28;19930;-48
2023/06/25 02:06:09;;;;;;;;;;;;;;;18.45;100.00;101920.97;5100171;28;20883;-44
2023/06/25 02:08:34;;;;;;;;;;;;;;;18.44;100.00;101919.22;5100628;28;19920;-46
2023/06/25 02:10:59;;;;;;;;;;;;;;;18.39;100.00;101919.19;5097623;28;19920;-45
2023/06/25 02:13:24;;;;;;;;;;;;;;;18.35;100.00;101921.72;5099735;28;19916;-45
2023/06/25 02:15:49;;;;;;;;;;;;;;;18.30;100.00;101912.97;5104464;28;19927;-45
2023/06/25 02:18:15;;;;;;;;;;;;;;;18.27;100.00;101911.22;5091123;28;19916;-46
2023/06/25 02:20:40;;;;;;;;;;;;;;;18.23;100.00;101904.19;5091253;28;19920;-44
2023/06/25 02:23:05;;;;;;;;;;;;;;;18.20;100.00;101899.84;5091557;28;19923;-47
2023/06/25 02:25:30;;;;;;;;;;;;;;;18.15;100.00;101898.03;5092778;28;20363;-46
2023/06/25 02:27:56;;;;;;;;;;;;;;;18.11;100.00;101899.69;5102967;28;19916;-45
2023/06/25 02:30:21;;;;;;;;;;;;;;;18.08;100.00;101901.38;5094803;28;20006;-45
2023/06/25 02:32:46;;;;;;;;;;;;;;;18.02;100.00;101888.28;5096260;28;20007;-45
2023/06/25 02:35:11;;;;;;;;;;;;;;;17.98;100.00;101895.19;5091174;28;19942;-44
2023/06/25 02:37:37;;;;;;;;;;;;;;;17.92;100.00;101884.69;5095263;28;20340;-46
2023/06/25 02:40:02;;;;;;;;;;;;;;;17.89;100.00;101882.03;5090618;28;19920;-45
2023/06/25 02:42:27;;;;;;;;;;;;;;;17.85;100.00;101885.47;5100921;28;19969;-45
2023/06/25 02:44:52;;;;;;;;;;;;;;;17.81;100.00;101886.25;5099343;28;19946;-46
2023/06/25 02:47:18;;;;;;;;;;;;;;;17.76;100.00;101883.59;5100310;28;19955;-48
2023/06/25 02:49:43;;;;;;;;;;;;;;;17.70;100.00;101886.94;5099204;28;19923;-46
2023/06/25 02:52:08;;;;;;;;;;;;;;;17.65;100.00;101880.81;5100101;28;19920;-48
2023/06/25 02:54:33;;;;;;;;;;;;;;;17.66;100.00;101884.28;5098946;28;20362;-48
2023/06/25 02:56:59;;;;;;;;;;;;;;;17.66;100.00;101877.34;5098761;28;19916;-45
2023/06/25 02:59:24;;;;;;;;;;;;;;;17.62;100.00;101877.28;5090547;28;19923;-47
2023/06/25 03:01:49;;;;;;;;;;;;;;;17.59;100.00;101880.69;5096098;28;19924;-46
2023/06/25 03:04:14;;;;;;;;;;;;;;;17.54;100.00;101879.78;5098814;28;19924;-46
2023/06/25 03:06:40;;;;;;;;;;;;;;;17.51;100.00;101877.09;5097044;28;20016;-47
2023/06/25 03:09:07;;;;;;;;;;;;;;;17.48;100.00;101884.88;5094934;28;19927;-45
2023/06/25 03:11:32;;;;;;;;;;;;;;;17.45;100.00;101879.63;5093816;28;20385;-45
2023/06/25 03:13:57;;;;;;;;;;;;;;;17.42;100.00;101885.66;5097295;28;19916;-46
2023/06/25 03:16:24;;;;;;;;;;;;;;;17.40;100.00;101878.66;5094193;28;20434;-44
2023/06/25 03:18:49;;;;;;;;;;;;;;;17.35;100.00;101877.69;5094766;28;20332;-46
2023/06/25 03:21:15;;;;;;;;;;;;;;;17.29;100.00;101880.19;5088135;28;20372;-45
2023/06/25 03:23:40;;;;;;;;;;;;;;;17.26;100.00;101872.38;5080164;28;19924;-45
2023/06/25 03:26:05;;;;;;;;;;;;;;;17.23;100.00;101873.22;5093472;28;19951;-45
2023/06/25 03:28:31;;;;;;;;;;;;;;;17.20;100.00;101872.25;5104813;28;20010;-48
2023/06/25 03:30:56;;;;;;;;;;;;;;;17.16;100.00;101867.00;5107898;28;19962;-47
2023/06/25 03:33:21;;;;;;;;;;;;;;;17.16;100.00;101869.59;5101529;28;20016;-45
2023/06/25 03:35:47;;;;;;;;;;;;;;;17.14;100.00;101873.03;5094046;28;19963;-45
2023/06/25 03:38:13;;;;;;;;;;;;;;;17.15;100.00;101872.19;5083206;28;19963;-44
2023/06/25 03:40:38;;;;;;;;;;;;;;;17.14;100.00;101868.72;5085680;28;19955;-44
2023/06/25 03:43:03;;;;;;;;;;;;;;;17.15;100.00;101859.19;5085552;28;19920;-45
2023/06/25 03:45:29;;;;;;;;;;;;;;;17.14;100.00;101858.31;5103992;28;19918;-44
2023/06/25 03:47:54;;;;;;;;;;;;;;;17.14;100.00;101853.13;5095023;28;19920;-44
2023/06/25 03:50:19;;;;;;;;;;;;;;;17.15;100.00;101861.78;5090126;28;19924;-45
2023/06/25 03:52:44;;;;;;;;;;;;;;;17.16;100.00;101853.13;5103165;28;19915;-44
2023/06/25 03:55:10;;;;;;;;;;;;;;;17.19;100.00;101861.00;5101397;28;19924;-44
2023/06/25 03:57:35;;;;;;;;;;;;;;;17.20;100.00;101854.94;5095772;28;19916;-45
2023/06/25 04:00:00;;;;;;;;;;;;;;;17.21;100.00;101850.63;5096983;28;20271;-44
2023/06/25 04:02:25;;;;;;;;;;;;;;;17.25;100.00;101857.63;5095495;28;19973;-46
2023/06/25 04:04:51;;;;;;;;;;;;;;;17.29;100.00;101859.41;5101253;28;19920;-47
2023/06/25 04:07:16;;;;;;;;;;;;;;;17.31;100.00;101860.31;5101417;28;19919;-44
2023/06/25 04:09:41;;;;;;;;;;;;;;;17.34;100.00;101857.75;5103556;28;19920;-44
2023/06/25 04:12:07;;;;;;;;;;;;;;;17.39;100.00;101863.91;5077483;28;20271;-57
2023/06/25 04:14:32;;;;;;;;;;;;;;;17.42;100.00;101856.19;5101561;28;20054;-57
2023/06/25 04:16:57;;;;;;;;;;;;;;;17.45;100.00;101852.75;5078641;28;19916;-57
2023/06/25 04:19:22;;;;;;;;;;;;;;;17.48;100.00;101866.69;5072820;28;19932;-57
2023/06/25 04:21:48;;;;;;;;;;;;;;;17.57;100.00;101859.00;5101099;28;19935;-58
2023/06/25 04:24:13;;;;;;;;;;;;;;;18.07;100.00;101866.66;5095411;28;19935;-47
2023/06/25 04:26:38;;;;;;;;;;;;;;;18.85;100.00;101857.19;5063836;28;20466;-44
2023/06/25 04:29:03;;;;;;;;;;;;;;;19.69;98.12;101865.72;5091782;28;19962;-47
2023/06/25 04:31:29;;;;;;;;;;;;;;;20.38;90.58;101860.84;5081857;28;19923;-46
2023/06/25 04:33:54;;;;;;;;;;;;;;;21.07;90.39;101864.50;5091619;28;20002;-48
2023/06/25 04:36:20;;;;;;;;;;;;;;;21.77;87.48;101863.59;5094640;28;20397;-48
2023/06/25 04:38:45;;;;;;;;;;;;;;;22.41;83.44;101867.78;5091110;28;19920;-49
2023/06/25 04:41:10;;;;;;;;;;;;;;;22.89;80.29;101871.03;5101355;28;19916;-45
2023/06/25 04:43:35;;;;;;;;;;;;;;;23.13;78.07;101862.97;5107565;28;19966;-44
2023/06/25 04:46:00;;;;;;;;;;;;;;;23.29;76.95;101859.31;5108994;28;19923;-47
2023/06/25 04:48:26;;;;;;;;;;;;;;;23.41;75.57;101866.22;5093616;28;19916;-47
2023/06/25 04:50:51;;;;;;;;;;;;;;;23.47;76.40;101860.91;5091717;28;19916;-44
2023/06/25 04:53:16;;;;;;;;;;;;;;;23.65;74.30;101864.28;5089956;28;20263;-45
2023/06/25 04:55:41;;;;;;;;;;;;;;;23.74;73.55;101865.06;5096157;28;20003;-48
2023/06/25 04:58:07;;;;;;;;;;;;;;;23.89;73.13;101864.00;5094565;28;19923;-49
2023/06/25 05:00:32;;;;;;;;;;;;;;;24.03;72.64;101861.25;5089314;28;20046;-45
2023/06/25 05:02:57;;;;;;;;;;;;;;;24.24;72.94;101862.72;5077182;28;19923;-47
2023/06/25 05:05:22;;;;;;;;;;;;;;;24.36;70.55;101861.72;5095733;28;20444;-45
2023/06/25 05:07:48;;;;;;;;;;;;;;;24.31;71.79;101859.97;5077994;28;20407;-45
2023/06/25 05:10:16;;;;;;;;;;;;;;;24.39;70.70;101859.94;5100014;28;19924;-46
2023/06/25 05:12:42;;;;;;;;;;;;;;;24.47;69.53;101862.44;5085955;28;19912;-46
2023/06/25 05:15:07;;;;;;;;;;;;;;;24.50;68.71;101859.75;5097425;28;20521;-44
2023/06/25 05:17:32;;;;;;;;;;;;;;;24.63;66.90;101863.09;5090046;28;19920;-49
2023/06/25 05:19:58;;;;;;;;;;;;;;;24.74;67.13;101861.19;5089501;28;19923;-46
2023/06/25 05:22:23;;;;;;;;;;;;;;;24.76;66.87;101865.53;5101063;28;20566;-46
2023/06/25 05:24:48;;;;;;;;;;;;;;;24.76;65.35;101862.03;5121307;27;19919;-44
2023/06/25 05:27:13;;;;;;;;;;;;;;;24.84;68.82;101853.13;5093976;28;19922;-46
2023/06/25 05:29:39;;;;;;;;;;;;;;;24.73;66.18;101855.03;5099793;28;19916;-49
2023/06/25 05:32:04;;;;;;;;;;;;;;;24.64;62.57;101849.94;5100575;28;20319;-48
2023/06/25 05:34:29;;;;;;;;;;;;;;;24.81;65.38;101857.56;5100526;28;19985;-57
2023/06/25 05:36:54;;;;;;;;;;;;;;;25.05;63.32;101857.19;5085537;28;19916;-58
2023/06/25 05:39:20;;;;;;;;;;;;;;;25.21;61.47;101855.19;5093686;28;19920;-57
2023/06/25 05:41:45;;;;;;;;;;;;;;;25.46;61.18;101860.03;5103096;28;19916;-57
2023/06/25 05:44:10;;;;;;;;;;;;;;;25.52;61.60;101860.78;5098763;28;19920;-57
2023/06/25 05:46:36;;;;;;;;;;;;;;;25.63;58.21;101860.59;5104586;27;19923;-57
2023/06/25 05:49:01;;;;;;;;;;;;;;;25.77;60.97;101852.47;5093043;28;19962;-57
2023/06/25 05:51:26;;;;;;;;;;;;;;;25.90;58.33;101853.94;5116352;27;19916;-57
2023/06/25 05:53:54;;;;;;;;;;;;;;;26.02;58.20;101848.44;5111218;27;19912;-48
2023/06/25 05:56:19;;;;;;;;;;;;;;;26.20;57.77;101842.75;5105162;28;19916;-48
2023/06/25 05:58:44;;;;;;;;;;;;;;;26.46;59.16;101846.66;5118651;28;20543;-46
2023/06/25 06:01:09;;;;;;;;;;;;;;;26.59;57.06;101839.34;5094718;28;20022;-48
2023/06/25 06:03:34;;;;;;;;;;;;;;;26.66;56.53;101830.38;5115999;28;19920;-48
2023/06/25 06:06:00;;;;;;;;;;;;;;;26.60;54.69;101836.66;5096200;28;20289;-48
2023/06/25 06:08:25;;;;;;;;;;;;;;;26.24;52.47;101835.66;5095255;28;19961;-49
2023/06/25 06:10:51;;;;;;;;;;;;;;;26.11;57.50;101832.44;5124678;28;20334;-48
2023/06/25 06:13:16;;;;;;;;;;;;;;;26.13;55.52;101835.91;5116408;28;19923;-56
2023/06/25 06:15:41;;;;;;;;;;;;;;;26.24;55.08;101837.44;5099601;28;19923;-57
2023/06/25 06:18:07;;;;;;;;;;;;;;;26.36;56.32;101837.16;5110067;28;19915;-57
2023/06/25 06:20:32;;;;;;;;;;;;;;;26.46;53.58;101838.75;5105966;28;19920;-58
2023/06/25 06:23:01;;;;;;;;;;;;;;;26.76;56.66;101842.44;5095584;28;20027;-57
2023/06/25 06:25:27;;;;;;;;;;;;;;;27.07;53.66;101844.38;5080061;28;19916;-57
2023/06/25 06:27:54;;;;;;;;;;;;;;;27.24;54.18;101843.03;5109546;28;19977;-57
2023/06/25 06:30:20;;;;;;;;;;;;;;;27.37;52.82;101835.66;5095629;28;19920;-57
2023/06/25 06:32:45;;;;;;;;;;;;;;;27.41;54.74;101844.34;5086397;28;19960;-56
2023/06/25 06:35:10;;;;;;;;;;;;;;;27.48;53.90;101845.91;5116698;28;19967;-58
2023/06/25 06:37:36;;;;;;;;;;;;;;;27.44;53.40;101841.63;5108260;28;20674;-57
2023/06/25 06:40:02;;;;;;;;;;;;;;;27.55;49.49;101841.34;5115891;27;19953;-57
2023/06/25 06:42:27;;;;;;;;;;;;;;;27.51;53.41;101836.13;5100313;28;20010;-56
2023/06/25 06:44:52;;;;;;;;;;;;;;;27.59;52.54;101835.06;5111734;27;20014;-57
2023/06/25 06:47:18;;;;;;;;;;;;;;;27.56;52.87;101836.03;5098041;28;19916;-57
2023/06/25 06:49:43;;;;;;;;;;;;;;;27.67;51.94;101833.97;5114250;27;19941;-57
2023/06/25 06:52:08;;;;;;;;;;;;;;;27.87;51.61;101835.19;5093009;28;20359;-57
2023/06/25 06:54:34;;;;;;;;;;;;;;;27.89;49.89;101825.44;5096064;27;19911;-57
2023/06/25 06:56:59;;;;;;;;;;;;;;;27.88;47.77;101829.00;5115227;27;19916;-57
2023/06/25 06:59:24;;;;;;;;;;;;;;;27.74;47.66;101835.53;5118839;27;19916;-57
2023/06/25 07:01:49;;;;;;;;;;;;;;;27.69;50.20;101839.22;5114564;27;20002;-56
2023/06/25 07:04:15;;;;;;;;;;;;;;;27.67;49.34;101830.44;5073689;28;19955;-56
2023/06/25 07:06:40;;;;;;;;;;;;;;;27.58;48.59;101836.84;5107553;27;19993;-56
2023/06/25 07:09:06;;;;;;;;;;;;;;;27.41;50.66;101825.84;5085844;28;19916;-57
2023/06/25 07:11:31;;;;;;;;;;;;;;;27.49;48.75;101829.19;5125859;27;19915;-57
2023/06/25 07:13:56;;;;;;;;;;;;;;;27.56;47.68;101830.75;5131087;27;19915;-56
2023/06/25 07:16:21;;;;;;;;;;;;;;;27.55;50.78;101829.00;5130588;27;19962;-57
2023/06/25 07:18:47;;;;;;;;;;;;;;;27.68;50.21;101821.59;5106260;27;19923;-57
2023/06/25 07:21:12;;;;;;;;;;;;;;;27.94;50.08;101819.09;5098095;27;19920;-57
2023/06/25 07:23:37;;;;;;;;;;;;;;;28.14;50.20;101830.88;5112842;27;19932;-56
2023/06/25 07:26:03;;;;;;;;;;;;;;;28.28;48.80;101829.56;5086161;28;20558;-57
2023/06/25 07:28:28;;;;;;;;;;;;;;;28.43;49.13;101822.09;5092804;28;19912;-57
2023/06/25 07:30:54;;;;;;;;;;;;;;;28.45;49.08;101823.75;5082022;28;19928;-56
2023/06/25 07:33:19;;;;;;;;;;;;;;;28.58;48.74;101818.97;5082558;28;19916;-57
2023/06/25 07:35:44;;;;;;;;;;;;;;;28.70;48.02;101817.72;5095077;28;20007;-55
2023/06/25 07:38:09;;;;;;;;;;;;;;;28.67;48.61;101812.50;5086431;28;20508;-57
2023/06/25 07:40:35;;;;;;;;;;;;;;;28.69;49.12;101816.81;5076172;28;19927;-57
2023/06/25 07:43:00;;;;;;;;;;;;;;;28.74;48.64;101812.25;5087530;28;19927;-57
2023/06/25 07:45:25;;;;;;;;;;;;;;;28.82;47.79;101820.81;5100125;28;19920;-57
2023/06/25 07:47:50;;;;;;;;;;;;;;;28.80;45.62;101814.69;5088774;28;19920;-57
2023/06/25 07:50:16;;;;;;;;;;;;;;;28.84;46.19;101810.16;5085873;28;19916;-57
2023/06/25 07:52:41;;;;;;;;;;;;;;;28.75;45.78;101803.38;5095657;28;19955;-57
2023/06/25 07:55:06;;;;;;;;;;;;;;;28.60;47.01;101809.19;5100154;28;19922;-57
2023/06/25 07:57:32;;;;;;;;;;;;;;;28.73;45.91;101804.34;5090164;28;20039;-57
2023/06/25 07:59:57;;;;;;;;;;;;;;;28.83;44.23;101806.66;5087667;28;19924;-57
2023/06/25 08:02:22;;;;;;;;;;;;;;;28.60;45.57;101798.59;5087617;28;20358;-57
2023/06/25 08:04:48;;;;;;;;;;;;;;;28.58;45.72;101801.31;5081369;28;19958;-57
2023/06/25 08:07:13;;;;;;;;;;;;;;;28.64;44.28;101800.25;5059959;28;19973;-57
2023/06/25 08:09:38;;;;;;;;;;;;;;;28.64;45.18;101799.34;5089330;28;20011;-56
2023/06/25 08:12:04;;;;;;;;;;;;;;;28.71;43.33;101799.13;5084787;28;19920;-57
2023/06/25 08:14:29;;;;;;;;;;;;;;;28.70;44.63;101791.25;5089505;28;19922;-57
2023/06/25 08:16:54;;;;;;;;;;;;;;;28.68;42.17;101791.28;5086355;28;20025;-57
2023/06/25 08:19:20;;;;;;;;;;;;;;;28.61;45.47;101796.81;5087351;28;20374;-57
2023/06/25 08:21:45;;;;;;;;;;;;;;;28.66;44.40;101790.47;5096983;28;20278;-59
2023/06/25 08:24:10;;;;;;;;;;;;;;;28.84;43.84;101791.63;5106403;28;19960;-57
2023/06/25 08:26:35;;;;;;;;;;;;;;;28.81;45.04;101792.59;5106580;28;19935;-57
2023/06/25 08:29:01;;;;;;;;;;;;;;;28.99;44.15;101795.56;5102947;28;20393;-57
2023/06/25 08:31:26;;;;;;;;;;;;;;;29.17;43.50;101789.63;5102950;28;20289;-57
2023/06/25 08:33:51;;;;;;;;;;;;;;;29.24;44.27;101787.63;5067297;28;20006;-57
2023/06/25 08:36:17;;;;;;;;;;;;;;;29.48;42.95;101791.19;5105978;28;20362;-57
2023/06/25 08:38:42;;;;;;;;;;;;;;;29.61;42.21;101779.28;5083615;28;19923;-57
2023/06/25 08:41:07;;;;;;;;;;;;;;;29.63;41.88;101780.09;5099239;28;19924;-57
2023/06/25 08:43:33;;;;;;;;;;;;;;;29.68;41.46;101788.72;5101165;28;20391;-57
2023/06/25 08:45:58;;;;;;;;;;;;;;;29.80;42.25;101776.81;5095139;28;19920;-57
2023/06/25 08:48:23;;;;;;;;;;;;;;;29.93;42.25;101780.72;5097615;28;19924;-57
2023/06/25 08:50:56;;;;;;;;;;;;;;;30.05;42.51;101771.41;5075619;28;20440;-49
2023/06/25 08:53:24;;;;;;;;;;;;;;;30.00;42.65;101773.38;5108025;28;19920;-46
2023/06/25 08:55:51;;;;;;;;;;;;;;;30.12;41.99;101768.50;5103974;28;19922;-49
2023/06/25 08:58:16;;;;;;;;;;;;;;;30.16;42.55;101766.59;5104810;28;19969;-47
2023/06/25 09:00:41;;;;;;;;;;;;;;;30.20;42.89;101767.31;5110407;28;19919;-47
2023/06/25 09:03:07;;;;;;;;;;;;;;;30.09;40.82;101763.28;5106139;28;19920;-49
2023/06/25 09:05:33;;;;;;;;;;;;;;;30.03;42.40;101767.94;5109271;28;19953;-46
2023/06/25 09:07:59;;;;;;;;;;;;;;;30.09;42.33;101768.59;5088102;28;19924;-46
2023/06/25 09:10:24;;;;;;;;;;;;;;;30.07;42.51;101772.22;5105963;28;20321;-44
2023/06/25 09:12:50;;;;;;;;;;;;;;;30.05;41.62;101766.13;5106750;28;20010;-46
2023/06/25 09:15:20;;;;;;;;;;;;;;;30.04;42.03;101770.56;5103419;28;20386;-49
2023/06/25 09:17:46;;;;;;;;;;;;;;;30.00;42.51;101766.28;5106038;28;19916;-48
2023/06/25 09:20:11;;;;;;;;;;;;;;;29.94;41.78;101758.56;5102977;28;20110;-46
2023/06/25 09:23:04;;;;;;;;;;;;;;;29.85;42.18;101754.50;5109898;28;19931;-49
2023/06/25 09:25:31;;;;;;;;;;;;;;;29.84;40.70;101762.50;5099971;28;19916;-49
2023/06/25 09:27:58;;;;;;;;;;;;;;;29.74;41.53;101762.00;5098940;28;19923;-48
2023/06/25 09:30:24;;;;;;;;;;;;;;;29.71;41.27;101750.63;5092211;28;20025;-58
2023/06/25 09:32:50;;;;;;;;;;;;;;;29.72;40.84;101753.22;5092147;28;20375;-56
2023/06/25 09:35:19;;;;;;;;;;;;;;;29.70;41.82;101760.38;5102700;28;19930;-58
2023/06/25 09:37:44;;;;;;;;;;;;;;;29.64;42.04;101757.94;5109916;28;19919;-57
2023/06/25 09:40:09;;;;;;;;;;;;;;;29.75;42.05;101747.81;5109688;28;19951;-57
2023/06/25 09:42:35;;;;;;;;;;;;;;;29.87;41.97;101742.03;5081874;28;19935;-48
2023/06/25 09:45:01;;;;;;;;;;;;;;;29.97;41.62;101747.84;5096272;28;19924;-45
2023/06/25 09:47:27;;;;;;;;;;;;;;;30.00;41.22;101742.44;5097121;28;20009;-45
2023/06/25 09:49:53;;;;;;;;;;;;;;;30.05;40.98;101744.91;5095151;28;19943;-45
2023/06/25 09:52:20;;;;;;;;;;;;;;;30.09;42.35;101743.84;5109642;28;20285;-47
2023/06/25 09:54:46;;;;;;;;;;;;;;;30.18;41.76;101733.78;5109385;28;19916;-48
2023/06/25 09:57:16;;;;;;;;;;;;;;;30.23;42.10;101733.59;5109653;28;20274;-48
2023/06/25 09:59:41;;;;;;;;;;;;;;;30.31;42.03;101731.47;5083034;28;20313;-46
2023/06/25 10:02:07;;;;;;;;;;;;;;;30.47;42.47;101729.06;5108308;28;19926;-45
2023/06/25 10:04:33;;;;;;;;;;;;;;;30.62;39.76;101731.06;5109985;28;19946;-45
2023/06/25 10:06:59;;;;;;;;;;;;;;;30.62;40.68;101735.53;5107693;28;19915;-44
2023/06/25 10:09:24;;;;;;;;;;;;;;;30.65;41.38;101730.09;5106606;28;20293;-47
2023/06/25 10:11:50;;;;;;;;;;;;;;;30.73;39.68;101728.00;5112379;28;20366;-48
2023/06/25 10:14:15;;;;;;;;;;;;;;;30.74;38.58;101724.41;5085749;28;20290;-46
2023/06/25 10:16:41;;;;;;;;;;;;;;;30.71;41.08;101721.91;5114063;28;19911;-48
2023/06/25 10:19:06;;;;;;;;;;;;;;;30.77;40.40;101713.69;5112121;28;20129;-48
2023/06/25 10:21:31;;;;;;;;;;;;;;;30.81;40.06;101717.03;5112710;28;19923;-46
2023/06/25 10:23:58;;;;;;;;;;;;;;;30.73;40.75;101716.53;5108424;28;19956;-48
2023/06/25 10:26:30;;;;;;;;;;;;;;;30.82;40.75;101709.03;5106488;28;19911;-46
2023/06/25 10:28:59;;;;;;;;;;;;;;;30.94;40.01;101708.50;5100422;28;20014;-46
2023/06/25 10:31:25;;;;;;;;;;;;;;;31.08;39.00;101710.53;5097681;28;19923;-44
2023/06/25 10:33:50;;;;;;;;;;;;;;;31.20;39.08;101702.03;5101753;28;20014;-48
2023/06/25 10:36:23;;;;;;;;;;;;;;;31.24;37.53;101692.13;5099711;28;20315;-49
2023/06/25 10:38:48;;;;;;;;;;;;;;;31.23;36.98;101696.56;5102478;28;19911;-47
2023/06/25 10:41:13;;;;;;;;;;;;;;;31.17;36.23;101699.47;5091680;28;19973;-48
2023/06/25 10:43:38;;;;;;;;;;;;;;;31.24;37.30;101700.97;5074465;28;19931;-47
2023/06/25 10:46:04;;;;;;;;;;;;;;;31.30;37.09;101696.31;5098345;28;19924;-46
2023/06/25 10:48:29;;;;;;;;;;;;;;;31.26;36.76;101698.25;5103698;28;19915;-48
2023/06/25 10:50:55;;;;;;;;;;;;;;;31.26;36.37;101694.75;5096843;28;19928;-46
2023/06/25 10:53:23;;;;;;;;;;;;;;;31.21;35.53;101686.94;5094493;28;19927;-46
2023/06/25 10:55:50;;;;;;;;;;;;;;;31.27;36.55;101686.69;5098827;28;20534;-48
2023/06/25 10:58:19;;;;;;;;;;;;;;;31.37;34.33;101685.34;5096331;28;19955;-45
2023/06/25 11:00:45;;;;;;;;;;;;;;;31.45;35.56;101687.66;5097555;28;19922;-49
2023/06/25 11:03:10;;;;;;;;;;;;;;;31.33;35.48;101681.09;5093255;28;20025;-48
2023/06/25 11:05:43;;;;;;;;;;;;;;;31.32;34.95;101676.72;5086883;28;19916;-46
2023/06/25 11:08:08;;;;;;;;;;;;;;;31.42;34.98;101667.38;5097258;28;19961;-46
2023/06/25 11:10:35;;;;;;;;;;;;;;;31.49;36.47;101668.84;5101971;28;19916;-45
2023/06/25 11:13:01;;;;;;;;;;;;;;;31.47;36.35;101665.38;5099214;28;20024;-46
2023/06/25 11:15:31;;;;;;;;;;;;;;;31.58;36.16;101675.50;5098693;28;19958;-45
2023/06/25 11:17:56;;;;;;;;;;;;;;;31.71;33.85;101668.66;5097027;28;19916;-46
2023/06/25 11:20:22;;;;;;;;;;;;;;;31.71;34.32;101667.81;5083373;28;20274;-44
2023/06/25 11:22:48;;;;;;;;;;;;;;;31.87;32.96;101663.50;5098254;28;19920;-45
2023/06/25 11:25:13;;;;;;;;;;;;;;;32.00;35.40;101656.66;5080908;28;19923;-46
2023/06/25 11:27:39;;;;;;;;;;;;;;;32.08;34.06;101647.41;5092052;28;19962;-46
2023/06/25 11:30:05;;;;;;;;;;;;;;;32.12;34.48;101654.31;5091007;28;20061;-47
2023/06/25 11:32:30;;;;;;;;;;;;;;;32.12;33.50;101654.31;5091845;28;20400;-47
2023/06/25 11:34:56;;;;;;;;;;;;;;;32.09;33.50;101649.13;5089963;28;20334;-48
2023/06/25 11:37:22;;;;;;;;;;;;;;;32.10;34.08;101657.06;5088151;28;19977;-45
2023/06/25 11:39:51;;;;;;;;;;;;;;;31.98;33.00;101642.56;5091762;28;20293;-49
2023/06/25 11:42:17;;;;;;;;;;;;;;;31.96;33.65;101644.44;5090806;28;19916;-46
2023/06/25 11:44:43;;;;;;;;;;;;;;;32.05;34.46;101642.28;5091672;28;19912;-46
2023/06/25 11:47:09;;;;;;;;;;;;;;;32.19;33.50;101637.09;5091419;28;20371;-49
2023/06/25 11:49:35;;;;;;;;;;;;;;;32.29;33.50;101641.91;5091861;28;19920;-46
2023/06/25 11:52:00;;;;;;;;;;;;;;;32.42;32.49;101639.50;5091381;28;20003;-45
2023/06/25 11:54:25;;;;;;;;;;;;;;;32.45;33.49;101633.16;5091987;28;20317;-46
2023/06/25 11:56:51;;;;;;;;;;;;;;;32.46;32.90;101633.09;5091592;28;19996;-47
2023/06/25 11:59:16;;;;;;;;;;;;;;;32.40;32.59;101633.41;5091843;28;19920;-48
2023/06/25 12:01:41;;;;;;;;;;;;;;;32.49;32.76;101635.56;5091382;28;20343;-46
2023/06/25 12:04:07;;;;;;;;;;;;;;;32.47;32.59;101621.50;5091125;28;19924;-56
2023/06/25 12:06:32;;;;;;;;;;;;;;;32.35;33.18;101630.13;5091443;28;20368;-57
2023/06/25 12:08:57;;;;;;;;;;;;;;;32.30;33.98;101622.31;5091308;28;19943;-57
2023/06/25 12:11:22;;;;;;;;;;;;;;;32.17;32.24;101615.91;5089313;28;20371;-56
2023/06/25 12:13:48;;;;;;;;;;;;;;;32.35;32.49;101613.28;5091357;28;19923;-57
2023/06/25 12:16:13;;;;;;;;;;;;;;;32.55;32.05;101613.97;5090495;28;20349;-56
2023/06/25 12:18:38;;;;;;;;;;;;;;;32.64;31.24;101606.41;5090425;28;19915;-57
2023/06/25 12:21:03;;;;;;;;;;;;;;;32.44;31.58;101608.31;5089900;28;20394;-56
2023/06/25 12:23:29;;;;;;;;;;;;;;;32.27;33.07;101598.50;5099394;28;19968;-56
2023/06/25 12:25:54;;;;;;;;;;;;;;;32.30;32.69;101597.50;5079006;28;19924;-56
2023/06/25 12:28:19;;;;;;;;;;;;;;;32.32;31.90;101589.44;5089807;28;20213;-58